Time;durP1;ratioP1;P1;durP2;ratioP2;P2;SDS_P1;SDS_P2;PMS_P1;PMS_P2;Temp;Humidity;BMP_temperature;BMP_pressure;BME280_temperature;BME280_humidity;BME280_pressure;Samples;Min_cycle;Max_cycle;Signal;HPM_P1;HPM_P2
2023/11/22 00:00:12;;;;;;;3.17;2.17;;;5.20;1.00;;;;;;5077225;28;20715;-80
2023/11/22 00:05:36;;;;;;;2.47;2.27;;;5.10;1.00;;;;;;5075603;28;20429;-74
2023/11/22 00:08:11;;;;;;;2.67;2.23;;;5.10;1.00;;;;;;5079963;28;20455;-74
2023/11/22 00:10:37;;;;;;;2.80;1.90;;;5.00;1.00;;;;;;5072183;28;20186;-74
2023/11/22 00:13:05;;;;;;;3.47;2.97;;;5.00;1.00;;;;;;5077065;28;20441;-74
2023/11/22 00:15:41;;;;;;;3.50;2.53;;;4.90;1.00;;;;;;5072154;28;20540;-73
2023/11/22 00:18:11;;;;;;;3.83;2.50;;;4.90;1.00;;;;;;5070197;28;20463;-74
2023/11/22 00:21:11;;;;;;;2.60;2.40;;;4.80;1.00;;;;;;5071014;28;20441;-78
2023/11/22 00:26:59;;;;;;;9.37;3.80;;;4.80;1.00;;;;;;5080294;28;20435;-79
2023/11/22 00:29:35;;;;;;;2.80;2.60;;;4.80;1.00;;;;;;5069180;28;20430;-79
2023/11/22 00:32:41;;;;;;;2.80;2.53;;;4.80;1.00;;;;;;5057849;28;20906;-78
2023/11/22 00:35:10;;;;;;;2.90;2.60;;;4.80;1.00;;;;;;5072375;28;20445;-79
2023/11/22 00:38:12;;;;;;;3.70;3.17;;;4.70;1.00;;;;;;5064277;28;20897;-79
2023/11/22 00:44:40;;;;;;;4.43;2.83;;;4.70;1.00;;;;;;5082461;28;20384;-79
2023/11/22 00:47:11;;;;;;;2.77;2.50;;;4.80;1.00;;;;;;5074192;28;20476;-79
2023/11/22 00:49:37;;;;;;;4.00;3.10;;;4.70;1.00;;;;;;5075802;28;20421;-74
2023/11/22 00:52:06;;;;;;;4.80;3.10;;;4.60;1.00;;;;;;5083393;28;20421;-74
2023/11/22 00:54:32;;;;;;;3.40;3.10;;;4.70;1.00;;;;;;5080923;28;20170;-74
2023/11/22 00:56:58;;;;;;;2.87;2.67;;;4.60;1.00;;;;;;5086061;28;20788;-74
2023/11/22 00:59:24;;;;;;;4.33;3.20;;;4.60;1.00;;;;;;5080278;28;20195;-74
2023/11/22 01:02:11;;;;;;;3.80;3.30;;;4.60;1.00;;;;;;5075129;28;20175;-74
2023/11/22 01:04:47;;;;;;;3.53;3.20;;;4.60;1.00;;;;;;5077837;28;20206;-74
2023/11/22 01:07:29;;;;;;;4.20;3.30;;;4.60;1.00;;;;;;5057817;28;20513;-74
2023/11/22 01:09:59;;;;;;;4.47;3.53;;;4.60;1.00;;;;;;5066220;28;20439;-74
2023/11/22 01:12:53;;;;;;;4.23;3.40;;;4.50;1.00;;;;;;5077162;28;20429;-74
2023/11/22 01:15:41;;;;;;;5.13;3.57;;;4.50;1.00;;;;;;5073147;28;20421;-75
2023/11/22 01:18:17;;;;;;;8.30;4.30;;;4.40;1.00;;;;;;5070772;28;21024;-74
2023/11/22 01:21:11;;;;;;;8.23;5.10;;;4.40;1.00;;;;;;5090844;28;20919;-79
2023/11/22 01:23:41;;;;;;;5.03;4.27;;;4.40;1.00;;;;;;5077940;28;20472;-79
2023/11/22 01:26:12;;;;;;;4.37;3.97;;;4.40;1.00;;;;;;5077013;28;20417;-79
2023/11/22 01:32:40;;;;;;;6.00;4.53;;;4.40;1.00;;;;;;5077106;28;20401;-79
2023/11/22 01:35:06;;;;;;;7.40;4.00;;;4.30;1.00;;;;;;5084704;28;20440;-73
2023/11/22 01:37:35;;;;;;;4.20;3.70;;;4.30;1.00;;;;;;5078031;28;20428;-73
2023/11/22 01:40:03;;;;;;;6.10;4.53;;;4.20;1.00;;;;;;5084447;28;20514;-73
2023/11/22 01:42:29;;;;;;;6.50;4.47;;;;;;;;;;5076912;28;20606;-74
2023/11/22 01:44:59;;;;;;;6.97;4.00;;;4.20;1.00;;;;;;5063978;28;20475;-74
2023/11/22 01:47:26;;;;;;;6.90;4.43;;;4.20;1.00;;;;;;5076620;28;20907;-73
2023/11/22 01:49:53;;;;;;;5.70;4.07;;;4.20;1.00;;;;;;5081556;28;20452;-74
2023/11/22 01:52:25;;;;;;;6.50;4.23;;;4.20;1.00;;;;;;5077125;28;20441;-74
2023/11/22 01:55:06;;;;;;;6.40;4.70;;;;;;;;;;5076421;28;20445;-73
2023/11/22 01:57:33;;;;;;;6.13;4.07;;;4.20;1.00;;;;;;5082165;28;20417;-73
2023/11/22 02:00:14;;;;;;;12.20;5.10;;;4.20;1.00;;;;;;5074504;28;20882;-73
2023/11/22 02:02:40;;;;;;;6.80;4.83;;;4.20;1.00;;;;;;5083438;28;20918;-73
2023/11/22 02:05:42;;;;;;;6.00;4.10;;;4.20;1.00;;;;;;5083762;28;20524;-79
2023/11/22 02:08:10;;;;;;;9.70;4.40;;;4.20;1.00;;;;;;5080515;28;20412;-79
2023/11/22 02:10:41;;;;;;;5.43;4.03;;;4.20;1.00;;;;;;5074532;28;20490;-79
2023/11/22 02:13:41;;;;;;;5.30;3.87;;;4.20;1.00;;;;;;5079582;28;20425;-79
2023/11/22 02:16:23;;;;;;;7.53;3.90;;;4.20;1.00;;;;;;5074257;28;20412;-79
2023/11/22 02:19:41;;;;;;;6.93;4.20;;;4.20;1.00;;;;;;5103599;28;21205;-79
2023/11/22 02:22:11;;;;;;;4.93;3.80;;;4.20;1.00;;;;;;5081897;28;20437;-79
2023/11/22 02:24:47;;;;;;;6.80;4.00;;;;;;;;;;5086915;28;20807;-79
2023/11/22 02:31:05;;;;;;;4.23;3.63;;;4.20;1.00;;;;;;5067056;28;20822;-78
2023/11/22 02:36:53;;;;;;;4.63;3.77;;;;;;;;;;5084756;28;20446;-74
2023/11/22 02:39:35;;;;;;;4.87;3.53;;;4.30;1.00;;;;;;5075415;28;20808;-73
2023/11/22 02:42:11;;;;;;;3.70;3.27;;;;;;;;;;5075904;28;20425;-74
2023/11/22 02:44:47;;;;;;;5.97;3.60;;;4.20;1.00;;;;;;5076309;28;20511;-74
2023/11/22 02:47:17;;;;;;;5.70;3.70;;;4.20;1.00;;;;;;5096110;28;20393;-73
2023/11/22 02:49:43;;;;;;;5.70;3.60;;;;;;;;;;5078489;28;20966;-73
2023/11/22 02:52:11;;;;;;;6.30;3.47;;;4.10;1.00;;;;;;5071946;28;20471;-73
2023/11/22 02:54:37;;;;;;;4.33;3.20;;;4.20;1.00;;;;;;5071520;28;20420;-73
2023/11/22 02:57:03;;;;;;;3.93;3.23;;;4.20;1.00;;;;;;5075823;28;20401;-74
2023/11/22 02:59:29;;;;;;;4.37;3.50;;;4.10;1.00;;;;;;5078639;28;20509;-74
2023/11/22 03:02:05;;;;;;;5.00;3.50;;;4.10;1.00;;;;;;5082118;28;20437;-74
2023/11/22 03:04:33;;;;;;;4.13;3.17;;;4.10;1.00;;;;;;5077011;28;20429;-73
2023/11/22 03:07:00;;;;;;;3.97;3.40;;;4.00;1.00;;;;;;5080025;28;20508;-73
2023/11/22 03:09:26;;;;;;;5.97;3.57;;;4.00;1.00;;;;;;5077955;28;20425;-73
2023/11/22 03:15:36;;;;;;;7.40;3.40;;;4.00;1.00;;;;;;5056441;28;20801;-74
2023/11/22 03:18:06;;;;;;;5.90;3.87;;;3.90;1.00;;;;;;5066420;28;20511;-73
2023/11/22 03:20:43;;;;;;;6.03;4.23;;;3.90;1.00;;;;;;5075855;28;20441;-79
2023/11/22 03:23:11;;;;;;;4.70;3.40;;;4.00;1.00;;;;;;5075142;28;20880;-79
2023/11/22 03:26:06;;;;;;;8.47;3.97;;;4.00;1.00;;;;;;5062868;28;20411;-81
2023/11/22 03:29:05;;;;;;;6.60;4.00;;;3.90;1.00;;;;;;5078115;28;20459;-79
2023/11/22 03:31:35;;;;;;;3.70;3.20;;;;;;;;;;5063666;28;20429;-79
2023/11/22 03:34:05;;;;;;;4.90;3.80;;;3.90;1.00;;;;;;5073028;28;20783;-79
2023/11/22 03:36:53;;;;;;;8.30;4.00;;;3.90;1.00;;;;;;5069255;28;20444;-79
2023/11/22 03:39:48;;;;;;;4.47;3.60;;;3.80;1.00;;;;;;5089748;28;20490;-79
2023/11/22 03:42:41;;;;;;;4.40;3.37;;;3.80;1.00;;;;;;5072193;28;20504;-79
2023/11/22 03:45:17;;;;;;;3.90;3.40;;;3.70;1.00;;;;;;5087684;28;20471;-79
2023/11/22 03:51:05;;;;;;;7.10;4.00;;;3.80;1.00;;;;;;5072122;28;20417;-74
2023/11/22 03:53:32;;;;;;;5.20;3.73;;;3.70;1.00;;;;;;5074694;28;20435;-73
2023/11/22 03:55:59;;;;;;;7.17;3.70;;;3.70;1.00;;;;;;5075086;28;20905;-74
2023/11/22 03:58:29;;;;;;;4.30;3.80;;;3.60;1.00;;;;;;5083794;28;20533;-74
2023/11/22 04:01:11;;;;;;;5.20;3.17;;;3.60;1.00;;;;;;5080828;28;20417;-74
2023/11/22 04:03:37;;;;;;;7.10;3.60;;;;;;;;;;5084029;28;20578;-74
2023/11/22 04:06:19;;;;;;;3.20;2.90;;;3.60;1.00;;;;;;5089998;28;20413;-73
2023/11/22 04:08:53;;;;;;;4.90;3.60;;;3.50;1.00;;;;;;5074197;28;20413;-73
2023/11/22 04:11:19;;;;;;;4.97;3.90;;;3.50;1.00;;;;;;5076818;28;20228;-73
2023/11/22 04:13:45;;;;;;;4.67;3.30;;;;;;;;;;5074201;28;20453;-74
2023/11/22 04:16:12;;;;;;;13.93;4.10;;;3.50;1.00;;;;;;5073069;28;20182;-73
2023/11/22 04:18:43;;;;;;;7.73;3.67;;;;;;;;;;5074658;28;20488;-73
2023/11/22 04:21:18;;;;;;;4.37;2.73;;;;;;;;;;5068004;28;20441;-73
2023/11/22 04:23:48;;;;;;;5.20;3.28;;;3.50;1.00;;;;;;5075856;28;20935;-73
2023/11/22 04:26:20;;;;;;;4.37;3.50;;;3.50;1.00;;;;;;5074606;28;20168;-73
2023/11/22 04:29:11;;;;;;;3.78;3.08;;;3.40;1.00;;;;;;5066245;28;20440;-73
2023/11/22 04:31:41;;;;;;;4.13;3.33;;;3.40;1.00;;;;;;5077990;28;20530;-73
2023/11/22 04:34:07;;;;;;;6.13;3.40;;;3.40;1.00;;;;;;5066710;28;20451;-73
2023/11/22 04:36:42;;;;;;;3.80;3.07;;;;;;;;;;5073936;28;20191;-78
2023/11/22 04:39:35;;;;;;;5.00;3.17;;;3.30;1.00;;;;;;5073418;28;20202;-78
2023/11/22 04:42:11;;;;;;;4.40;3.60;;;3.30;1.00;;;;;;5070892;28;20425;-79
2023/11/22 04:44:59;;;;;;;4.28;3.50;;;3.20;1.00;;;;;;5067327;28;20186;-78
2023/11/22 04:47:53;;;;;;;5.00;3.30;;;3.20;1.00;;;;;;5070573;28;20183;-79
2023/11/22 04:50:42;;;;;;;5.20;4.10;;;3.20;1.00;;;;;;5074820;28;20854;-78
2023/11/22 04:56:41;;;;;;;5.10;3.85;;;3.10;1.00;;;;;;5070420;28;20828;-78
2023/11/22 04:59:11;;;;;;;5.10;3.43;;;3.10;1.00;;;;;;5054147;28;20604;-78
2023/11/22 05:01:48;;;;;;;4.40;3.47;;;3.00;1.00;;;;;;5054079;28;20418;-79
2023/11/22 05:04:35;;;;;;;3.90;3.20;;;3.00;1.00;;;;;;5068964;28;20416;-79
2023/11/22 05:07:41;;;;;;;3.30;2.97;;;3.00;1.00;;;;;;5082856;28;20182;-79
2023/11/22 05:10:41;;;;;;;4.15;3.30;;;3.00;1.00;;;;;;5071590;28;20236;-79
2023/11/22 05:13:11;;;;;;;4.60;3.45;;;2.90;1.00;;;;;;5072668;28;20305;-79
2023/11/22 05:16:11;;;;;;;5.90;3.30;;;3.00;1.00;;;;;;5080067;28;20661;-79
2023/11/22 05:18:37;;;;;;;4.68;3.15;;;;;;;;;;5062158;28;20298;-79
2023/11/22 05:21:03;;;;;;;4.63;3.55;;;3.00;1.00;;;;;;5063907;28;20175;-74
2023/11/22 05:23:31;;;;;;;4.93;3.75;;;;;;;;;;5073371;28;20265;-73
2023/11/22 05:25:57;;;;;;;4.43;3.42;;;2.90;1.00;;;;;;5075478;28;20175;-73
2023/11/22 05:28:23;;;;;;;4.57;3.28;;;;;;;;;;5076447;28;20179;-73
2023/11/22 05:30:54;;;;;;;8.90;3.97;;;;;;;;;;5074479;28;20179;-74
2023/11/22 05:33:23;;;;;;;4.20;3.30;;;2.90;1.00;;;;;;5088250;28;20269;-74
2023/11/22 05:35:49;;;;;;;6.13;3.35;;;2.80;1.00;;;;;;5066239;28;20457;-73
2023/11/22 05:38:15;;;;;;;4.00;3.37;;;2.80;1.00;;;;;;5075221;28;20198;-79
2023/11/22 05:40:42;;;;;;;3.63;3.30;;;2.70;1.00;;;;;;5081574;28;20183;-78
2023/11/22 05:43:42;;;;;;;4.75;3.65;;;2.70;1.00;;;;;;5072985;28;20171;-78
2023/11/22 05:46:29;;;;;;;4.90;3.33;;;2.70;1.00;;;;;;5073271;28;20572;-79
2023/11/22 05:49:11;;;;;;;4.00;3.40;;;2.60;1.00;;;;;;5065214;28;20417;-79
2023/11/22 05:51:41;;;;;;;5.43;3.70;;;2.60;1.00;;;;;;5083429;28;20449;-79
2023/11/22 05:54:17;;;;;;;3.40;3.10;;;2.60;1.00;;;;;;5061388;28;20414;-79
2023/11/22 05:57:29;;;;;;;5.40;3.47;;;2.70;1.00;;;;;;5070331;28;20643;-79
2023/11/22 06:00:41;;;;;;;5.25;3.65;;;2.70;1.00;;;;;;5068339;28;20473;-79
2023/11/22 06:03:12;;;;;;;4.90;2.92;;;2.60;1.00;;;;;;5072323;28;20183;-81
2023/11/22 06:05:38;;;;;;;4.87;3.83;;;;;;;;;;5080111;28;20182;-79
2023/11/22 06:08:41;;;;;;;3.17;2.88;;;2.60;1.00;;;;;;5077210;28;20476;-79
2023/11/22 06:11:41;;;;;;;5.80;3.50;;;2.60;1.00;;;;;;5091305;28;20213;-79
2023/11/22 06:14:41;;;;;;;5.15;3.50;;;2.60;1.00;;;;;;5062435;28;20441;-79
2023/11/22 06:17:41;;;;;;;3.55;3.25;;;2.60;1.00;;;;;;5068350;28;20223;-85
2023/11/22 06:23:56;;;;;;;4.70;3.42;;;2.60;1.00;;;;;;5075434;28;20186;-80
2023/11/22 06:27:11;;;;;;;3.67;3.20;;;2.60;1.00;;;;;;5074752;28;20183;-88
2023/11/22 06:30:11;;;;;;;5.10;3.40;;;2.60;1.00;;;;;;5072346;28;20229;-88
2023/11/22 06:32:42;;;;;;;4.32;3.28;;;;;;;;;;5076104;28;20213;-90
2023/11/22 06:35:09;;;;;;;5.90;3.92;;;2.50;1.00;;;;;;5069985;28;20262;-74
2023/11/22 06:38:05;;;;;;;5.10;3.70;;;2.40;1.00;;;;;;5085224;28;20190;-90
2023/11/22 06:44:11;;;;;;;5.20;3.72;;;2.30;1.00;;;;;;5076365;28;20800;-90
2023/11/22 06:47:11;;;;;;;4.85;3.67;;;2.30;1.00;;;;;;5076202;28;20205;-88
2023/11/22 06:49:42;;;;;;;4.70;3.25;;;;;;;;;;5087560;28;20654;-88
2023/11/22 06:52:36;;;;;;;4.07;3.30;;;2.30;1.00;;;;;;5067936;28;20186;-88
2023/11/22 06:58:08;;;;;;;3.65;3.30;;;;;;;;;;5071187;28;20455;-87
2023/11/22 07:00:55;;;;;;;5.25;2.95;;;2.20;1.00;;;;;;5076557;28;20187;-89
2023/11/22 07:04:11;;;;;;;6.75;3.50;;;2.10;1.00;;;;;;5076002;28;20221;-88
2023/11/22 07:07:11;;;;;;;5.10;3.35;;;2.00;1.00;;;;;;5089407;28;20174;-89
2023/11/22 07:10:11;;;;;;;4.88;3.60;;;2.10;1.00;;;;;;5088056;28;20175;-88
2023/11/22 07:13:01;;;;;;;5.13;3.17;;;2.20;1.00;;;;;;5084447;28;20182;-88
2023/11/22 07:15:36;;;;;;;7.22;3.58;;;;;;;;;;5063957;28;20203;-88
2023/11/22 07:18:23;;;;;;;4.65;3.60;;;2.30;1.00;;;;;;5071418;28;20172;-88
2023/11/22 07:21:11;;;;;;;6.63;3.70;;;2.30;1.00;;;;;;5074990;28;20264;-88
2023/11/22 07:24:14;;;;;;;4.82;3.35;;;2.40;1.00;;;;;;5085293;28;20563;-83
2023/11/22 07:26:42;;;;;;;6.38;3.70;;;;;;;;;;5065357;28;20174;-84
2023/11/22 07:29:09;;;;;;;4.80;3.80;;;;;;;;;;5070451;28;20212;-83
2023/11/22 07:31:42;;;;;;;4.35;3.10;;;;;;;;;;5075225;28;20179;-83
2023/11/22 07:34:41;;;;;;;4.57;3.20;;;2.80;1.00;;;;;;5073635;28;20190;-84
2023/11/22 07:37:44;;;;;;;6.87;3.60;;;2.90;1.00;;;;;;5073666;28;20433;-84
2023/11/22 07:40:13;;;;;;;5.90;3.40;;;3.00;1.00;;;;;;5070602;28;21009;-84
2023/11/22 07:43:05;;;;;;;4.78;3.08;;;3.10;1.00;;;;;;5069933;28;20413;-84
2023/11/22 07:46:13;;;;;;;14.93;3.37;;;3.20;1.00;;;;;;5078108;28;20175;-84
2023/11/22 07:48:49;;;;;;;7.40;3.60;;;3.20;1.00;;;;;;5094296;28;20412;-78
2023/11/22 07:51:24;;;;;;;36.30;6.67;;;3.30;1.00;;;;;;5067213;28;20421;-73
2023/11/22 07:54:18;;;;;;;7.27;3.20;;;3.30;1.00;;;;;;5070945;28;20792;-79
2023/11/22 07:57:00;;;;;;;5.10;3.40;;;;;;;;;;5065653;28;20440;-79
2023/11/22 07:59:30;;;;;;;7.00;3.60;;;3.50;1.00;;;;;;5075626;28;20468;-79
2023/11/22 08:02:12;;;;;;;8.60;3.70;;;;;;;;;;5062352;28;21921;-78
2023/11/22 08:05:17;;;;;;;6.17;3.20;;;3.60;1.00;;;;;;5071048;28;20420;-78
2023/11/22 08:07:45;;;;;;;22.73;5.50;;;;;;;;;;5066917;28;20515;-78
2023/11/22 08:10:18;;;;;;;5.33;3.30;;;;;;;;;;5073610;28;20404;-78
2023/11/22 08:12:49;;;;;;;3.57;2.80;;;;;;;;;;5070509;28;20417;-78
2023/11/22 08:15:24;;;;;;;5.10;3.63;;;;;;;;;;5066159;28;20939;-79
2023/11/22 08:18:11;;;;;;;4.00;2.60;;;3.70;1.00;;;;;;5067747;28;20428;-78
2023/11/22 08:21:11;;;;;;;4.63;2.87;;;3.70;1.00;;;;;;5061984;28;20437;-78
2023/11/22 08:23:37;;;;;;;4.37;3.20;;;3.70;1.00;;;;;;5072428;28;20440;-73
2023/11/22 08:26:12;;;;;;;6.77;3.70;;;;;;;;;;5073523;28;20425;-73
2023/11/22 08:28:42;;;;;;;12.30;4.37;;;;;;;;;;5074494;28;20898;-73
2023/11/22 08:31:09;;;;;;;5.77;3.60;;;;;;;;;;5067219;28;20508;-73
2023/11/22 08:33:42;;;;;;;4.87;3.17;;;3.90;1.00;;;;;;5063685;28;20921;-73
2023/11/22 08:36:09;;;;;;;6.50;3.20;;;4.00;1.00;;;;;;5067605;28;20462;-73
2023/11/22 08:38:42;;;;;;;31.57;6.30;;;4.00;1.00;;;;;;5063386;28;20980;-74
2023/11/22 08:41:23;;;;;;;7.87;3.67;;;4.10;1.00;;;;;;5077644;28;20425;-74
2023/11/22 08:43:49;;;;;;;12.00;3.93;;;;;;;;;;5063536;28;20428;-74
2023/11/22 08:46:24;;;;;;;5.00;3.40;;;4.20;1.00;;;;;;5074003;28;20562;-74
2023/11/22 08:49:11;;;;;;;4.60;3.00;;;4.20;1.00;;;;;;5080033;28;20828;-73
2023/11/22 08:51:38;;;;;;;4.03;3.37;;;;;;;;;;5071328;28;20487;-74
2023/11/22 08:54:11;;;;;;;3.03;2.73;;;4.30;1.00;;;;;;5073398;28;20464;-78
2023/11/22 08:57:11;;;;;;;4.80;3.47;;;4.40;1.00;;;;;;5061599;28;20503;-79
2023/11/22 08:59:53;;;;;;;8.50;3.17;;;4.50;1.00;;;;;;5087294;28;20452;-78
2023/11/22 09:02:36;;;;;;;4.10;2.30;;;4.60;1.00;;;;;;5061186;28;20476;-78
2023/11/22 09:05:07;;;;;;;5.83;3.10;;;4.70;1.00;;;;;;5071739;28;20425;-78
2023/11/22 09:07:41;;;;;;;9.80;3.20;;;4.60;1.00;;;;;;5068693;28;20502;-79
2023/11/22 09:10:41;;;;;;;6.80;3.17;;;;;;;;;;5074429;28;20412;-78
2023/11/22 09:13:41;;;;;;;6.37;3.27;;;4.70;1.00;;;;;;5072684;28;20420;-78
2023/11/22 09:16:36;;;;;;;6.27;3.20;;;4.80;1.00;;;;;;5072932;28;20523;-78
2023/11/22 09:19:41;;;;;;;4.60;2.90;;;4.90;1.00;;;;;;5076810;28;20560;-80
2023/11/22 09:22:45;;;;;;;3.07;2.53;;;4.80;1.00;;;;;;5073287;28;20417;-78
2023/11/22 09:25:19;;;;;;;6.87;2.80;;;;;;;;;;5066688;28;20430;-74
2023/11/22 09:27:51;;;;;;;2.40;2.20;;;;;;;;;;5065566;28;20475;-73
2023/11/22 09:31:01;;;;;;;6.33;3.10;;;4.70;1.00;;;;;;5067195;28;20441;-73
2023/11/22 09:33:15;;;;;;;3.83;2.77;;;4.70;1.00;;;;;;5069346;28;20441;-73
2023/11/22 09:35:43;;;;;;;7.47;3.63;;;;;;;;;;5055998;28;20444;-73
2023/11/22 09:38:12;;;;;;;7.50;3.60;;;4.70;1.00;;;;;;5074508;28;20452;-73
2023/11/22 09:40:45;;;;;;;5.60;2.73;;;4.70;1.00;;;;;;5072658;28;20413;-77
2023/11/22 09:43:25;;;;;;;10.50;3.10;;;;;;;;;;5081081;28;20442;-78
2023/11/22 09:45:54;;;;;;;8.23;3.77;;;;;;;;;;5071119;28;20768;-78
2023/11/22 09:48:36;;;;;;;3.83;2.73;;;5.00;1.00;;;;;;5075705;28;20439;-78
2023/11/22 09:54:33;;;;;;;3.53;2.77;;;;;;;;;;5083902;28;20419;-78
2023/11/22 09:57:12;;;;;;;3.87;2.70;;;5.20;1.00;;;;;;5073974;28;20470;-80
2023/11/22 09:59:42;;;;;;;2.70;2.50;;;;;;;;;;5069219;28;20473;-78
2023/11/22 10:02:35;;;;;;;4.57;3.10;;;5.40;1.00;;;;;;5061514;28;20469;-78
2023/11/22 10:05:11;;;;;;;3.30;2.27;;;5.40;1.00;;;;;;5081579;28;20923;-77
2023/11/22 10:07:42;;;;;;;6.90;2.67;;;;;;;;;;5073054;28;20467;-77
2023/11/22 10:10:14;;;;;;;5.17;2.60;;;5.40;1.00;;;;;;5077551;28;20502;-78
2023/11/22 10:12:45;;;;;;;6.07;3.20;;;5.40;1.00;;;;;;5078096;28;20566;-79
2023/11/22 10:15:15;;;;;;;21.03;4.93;;;;;;;;;;5079425;28;20764;-78
2023/11/22 10:17:58;;;;;;;3.33;2.50;;;5.60;1.00;;;;;;5074746;28;20454;-77
2023/11/22 10:20:43;;;;;;;4.60;2.40;;;5.70;1.00;;;;;;5068394;28;20818;-77
2023/11/22 10:23:51;;;;;;;4.73;2.90;;;5.80;1.00;;;;;;5079944;28;20433;-76
2023/11/22 10:27:11;;;;;;;3.63;2.70;;;5.90;1.00;;;;;;5068486;28;20911;-78
2023/11/22 10:29:44;;;;;;;6.83;3.30;;;;;;;;;;5067008;28;20429;-77
2023/11/22 10:32:12;;;;;;;10.53;3.40;;;6.00;1.00;;;;;;5069380;28;20995;-77
2023/11/22 10:34:42;;;;;;;4.47;2.80;;;;;;;;;;5073834;28;20520;-76
2023/11/22 10:37:12;;;;;;;3.60;2.60;;;6.00;1.00;;;;;;5078854;28;20437;-77
2023/11/22 10:39:41;;;;;;;3.13;2.30;;;6.00;1.00;;;;;;5071718;28;21279;-78
2023/11/22 10:42:42;;;;;;;2.43;1.93;;;6.00;1.00;;;;;;5076234;28;20951;-78
2023/11/22 10:45:13;;;;;;;3.27;2.40;;;5.90;1.00;;;;;;5087409;28;20420;-77
2023/11/22 10:47:42;;;;;;;4.40;2.30;;;5.90;1.00;;;;;;5080933;28;20509;-77
2023/11/22 10:50:12;;;;;;;5.30;2.37;;;5.90;1.00;;;;;;5083245;28;20954;-79
2023/11/22 10:52:43;;;;;;;4.23;2.43;;;5.90;1.00;;;;;;5077337;28;20437;-78
2023/11/22 10:55:15;;;;;;;9.93;2.77;;;6.00;1.00;;;;;;5075370;28;20981;-77
2023/11/22 10:58:00;;;;;;;4.07;3.10;;;;;;;;;;5073453;28;20448;-78
2023/11/22 11:00:41;;;;;;;4.33;2.60;;;6.00;1.00;;;;;;5074277;28;21569;-77
2023/11/22 11:03:17;;;;;;;5.10;2.70;;;6.00;1.00;;;;;;5067460;28;20452;-77
2023/11/22 11:05:57;;;;;;;2.93;2.60;;;6.20;1.00;;;;;;5073213;28;20487;-78
2023/11/22 11:08:27;;;;;;;9.30;2.97;;;6.30;1.00;;;;;;5060914;28;20426;-77
2023/11/22 11:10:55;;;;;;;6.13;3.10;;;6.30;1.00;;;;;;5073871;28;20487;-73
2023/11/22 11:13:23;;;;;;;4.00;2.60;;;6.30;1.00;;;;;;5076332;28;20413;-72
2023/11/22 11:15:51;;;;;;;5.63;2.93;;;6.20;1.00;;;;;;5083051;28;20432;-72
2023/11/22 11:18:17;;;;;;;11.50;3.07;;;6.20;1.00;;;;;;5065682;28;20413;-72
2023/11/22 11:20:54;;;;;;;2.60;1.90;;;6.20;1.00;;;;;;5073006;28;20429;-72
2023/11/22 11:23:22;;;;;;;5.30;2.70;;;6.10;1.00;;;;;;5072215;28;20437;-71
2023/11/22 11:26:18;;;;;;;2.50;2.27;;;6.10;1.00;;;;;;5071091;28;20433;-77
2023/11/22 11:29:00;;;;;;;6.23;2.63;;;;;;;;;;5071416;28;20429;-77
2023/11/22 11:31:43;;;;;;;3.30;2.40;;;6.20;1.00;;;;;;5065340;28;20970;-77
2023/11/22 11:34:12;;;;;;;3.27;2.67;;;;;;;;;;5073784;28;20462;-77
2023/11/22 11:36:41;;;;;;;3.23;2.97;;;5.90;1.00;;;;;;5078552;28;20442;-77
2023/11/22 11:39:28;;;;;;;4.10;2.90;;;5.90;1.00;;;;;;5073441;28;20473;-77
2023/11/22 11:42:11;;;;;;;2.90;2.60;;;5.90;1.00;;;;;;5074771;28;20458;-72
2023/11/22 11:44:38;;;;;;;5.13;3.00;;;5.80;1.00;;;;;;5071991;28;20423;-72
2023/11/22 11:47:11;;;;;;;4.80;3.00;;;;;;;;;;5068156;28;20426;-72
2023/11/22 11:49:42;;;;;;;5.03;2.57;;;;;;;;;;5067176;28;21090;-72
2023/11/22 11:52:08;;;;;;;11.23;3.13;;;5.60;1.00;;;;;;5065080;28;20417;-72
2023/11/22 11:54:35;;;;;;;7.30;3.10;;;;;;;;;;5070172;28;20478;-72
2023/11/22 11:57:12;;;;;;;12.40;3.67;;;5.90;1.00;;;;;;5072152;28;20178;-72
2023/11/22 11:59:38;;;;;;;11.47;3.20;;;;;;;;;;5072474;28;20986;-72
2023/11/22 12:02:06;;;;;;;4.50;2.57;;;6.00;1.00;;;;;;5072268;28;20732;-72
2023/11/22 12:04:43;;;;;;;12.07;3.67;;;;;;;;;;5047456;28;21005;-75
2023/11/22 12:07:17;;;;;;;4.83;2.63;;;6.10;1.00;;;;;;5064321;28;20476;-77
2023/11/22 12:10:06;;;;;;;3.90;2.07;;;6.20;1.00;;;;;;5069504;28;20441;-80
2023/11/22 12:12:45;;;;;;;9.13;3.03;;;6.20;1.00;;;;;;5068527;28;20421;-74
2023/11/22 12:15:29;;;;;;;6.00;3.03;;;6.40;1.00;;;;;;5073430;28;20519;-77
2023/11/22 12:17:56;;;;;;;5.40;2.67;;;6.60;1.00;;;;;;5066798;28;20438;-74
2023/11/22 12:20:22;;;;;;;4.40;2.60;;;6.80;1.00;;;;;;5073483;28;20547;-79
2023/11/22 12:22:54;;;;;;;3.50;2.00;;;6.80;1.00;;;;;;5070823;28;20421;-79
2023/11/22 12:25:46;;;;;;;6.67;2.13;;;6.80;1.00;;;;;;5070106;28;20422;-82
2023/11/22 12:28:12;;;;;;;6.60;2.70;;;;;;;;;;5072760;28;20419;-82
2023/11/22 12:30:42;;;;;;;2.23;2.10;;;6.70;1.00;;;;;;5074399;28;20425;-83
2023/11/22 12:36:30;;;;;;;3.13;2.83;;;;;;;;;;5080025;28;20420;-81
2023/11/22 12:39:24;;;;;;;5.27;2.50;;;6.30;1.00;;;;;;5084561;28;20903;-83
2023/11/22 12:42:11;;;;;;;5.23;2.30;;;6.40;1.00;;;;;;5076187;28;20457;-78
2023/11/22 12:45:37;;;;;;;5.37;2.50;;;6.40;1.00;;;;;;5082928;28;20457;-79
2023/11/22 12:48:42;;;;;;;8.63;3.10;;;6.40;1.00;;;;;;5023356;28;20430;-80
2023/11/22 12:52:01;;;;;;;2.93;2.40;;;6.20;1.00;;;;;;5011295;28;20466;-79
2023/11/22 12:54:41;;;;;;;4.30;2.43;;;6.10;1.00;;;;;;4946683;29;20442;-79
2023/11/22 12:57:12;;;;;;;3.73;2.90;;;;;;;;;;4953459;29;20918;-81
2023/11/22 12:59:41;;;;;;;3.17;2.77;;;5.90;1.00;;;;;;4953068;29;20470;-81
2023/11/22 13:02:12;;;;;;;4.00;3.03;;;;;;;;;;4954797;28;20422;-81
2023/11/22 13:05:15;;;;;;;4.87;2.80;;;6.00;1.00;;;;;;4947775;28;20831;-82
2023/11/22 13:07:43;;;;;;;6.63;3.40;;;6.10;1.00;;;;;;4938637;29;20873;-82
2023/11/22 13:10:11;;;;;;;3.00;2.53;;;6.20;1.00;;;;;;4959359;28;20443;-82
2023/11/22 13:12:43;;;;;;;4.20;3.07;;;;;;;;;;4953636;28;20494;-82
2023/11/22 13:15:12;;;;;;;5.33;3.20;;;6.10;1.00;;;;;;4936454;28;20450;-82
2023/11/22 13:18:12;;;;;;;2.77;2.00;;;6.20;1.00;;;;;;4954874;28;20450;-80
2023/11/22 13:20:50;;;;;;;4.03;2.80;;;6.20;1.00;;;;;;4957128;29;20524;-80
2023/11/22 13:23:35;;;;;;;2.67;2.47;;;6.20;1.00;;;;;;5010887;28;20848;-80
2023/11/22 13:26:29;;;;;;;4.53;2.90;;;6.30;1.00;;;;;;5015015;28;20527;-80
2023/11/22 13:29:06;;;;;;;5.50;3.00;;;6.40;1.00;;;;;;5059690;28;20421;-80
2023/11/22 13:31:48;;;;;;;4.33;2.90;;;;;;;;;;5075896;28;20431;-80
2023/11/22 13:34:17;;;;;;;4.47;2.10;;;6.40;1.00;;;;;;5078202;28;20431;-81
2023/11/22 13:36:44;;;;;;;4.30;2.27;;;6.60;1.00;;;;;;5086952;28;20586;-72
2023/11/22 13:39:09;;;;;;;4.43;2.63;;;6.60;1.00;;;;;;5085324;28;20453;-72
2023/11/22 13:41:35;;;;;;;2.87;2.43;;;;;;;;;;5085613;28;20768;-73
2023/11/22 13:44:02;;;;;;;4.60;2.57;;;6.50;1.00;;;;;;5084690;28;20890;-74
2023/11/22 13:46:27;;;;;;;4.30;2.13;;;6.50;1.00;;;;;;5085511;28;20415;-74
2023/11/22 13:48:54;;;;;;;10.53;3.37;;;6.40;1.00;;;;;;5080137;28;20508;-74
2023/11/22 13:51:24;;;;;;;2.40;1.87;;;6.20;1.00;;;;;;5067392;28;20647;-74
2023/11/22 13:54:14;;;;;;;4.80;2.13;;;6.10;1.00;;;;;;5072954;28;20432;-76
2023/11/22 13:56:42;;;;;;;2.93;2.50;;;6.00;1.00;;;;;;5085580;28;20471;-72
2023/11/22 13:59:29;;;;;;;2.60;2.33;;;5.90;1.00;;;;;;5076581;28;20963;-76
2023/11/22 14:02:05;;;;;;;3.50;2.27;;;6.00;1.00;;;;;;5060004;28;20445;-76
2023/11/22 14:04:35;;;;;;;3.13;2.80;;;6.00;1.00;;;;;;5092350;28;20975;-76
2023/11/22 14:07:12;;;;;;;2.40;2.20;;;;;;;;;;5082820;28;20416;-76
2023/11/22 14:09:44;;;;;;;4.70;2.87;;;;;;;;;;5083107;28;20829;-76
2023/11/22 14:12:12;;;;;;;2.50;2.10;;;5.80;1.00;;;;;;5067445;28;20799;-75
2023/11/22 14:14:42;;;;;;;5.00;2.73;;;;;;;;;;5084700;28;20452;-76
2023/11/22 14:17:42;;;;;;;6.47;2.80;;;5.70;1.00;;;;;;5078328;28;20405;-76
2023/11/22 14:20:18;;;;;;;6.83;3.27;;;5.70;1.00;;;;;;5065693;28;20506;-76
2023/11/22 14:23:11;;;;;;;7.23;3.20;;;5.70;1.00;;;;;;5087701;28;20428;-76
2023/11/22 14:26:17;;;;;;;2.83;2.63;;;5.70;1.00;;;;;;5096120;28;20423;-77
2023/11/22 14:28:43;;;;;;;9.73;3.50;;;;;;;;;;5058964;28;20585;-72
2023/11/22 14:31:09;;;;;;;4.70;3.10;;;5.50;1.00;;;;;;5074744;28;20429;-71
2023/11/22 14:33:35;;;;;;;2.90;2.70;;;5.50;1.00;;;;;;5074581;28;20417;-72
2023/11/22 14:36:01;;;;;;;4.10;2.17;;;;;;;;;;5076025;28;20451;-72
2023/11/22 14:38:27;;;;;;;3.20;2.70;;;5.60;1.00;;;;;;5077094;28;20421;-72
2023/11/22 14:40:53;;;;;;;4.47;2.97;;;;;;;;;;5081885;28;20447;-72
2023/11/22 14:43:36;;;;;;;2.50;2.30;;;5.40;1.00;;;;;;5089274;28;20794;-75
2023/11/22 14:56:24;;;;;;;6.00;3.60;;;4.90;1.00;;;;;;5083855;28;20419;-77
2023/11/22 15:02:36;;;;;;;2.77;2.57;;;4.90;1.00;;;;;;5061662;28;20406;-77
2023/11/22 15:08:27;;;;;;;4.07;2.90;;;4.50;1.00;;;;;;5076243;28;20458;-77
2023/11/22 15:11:00;;;;;;;3.67;2.60;;;4.40;1.00;;;;;;5077556;28;20417;-76
2023/11/22 15:13:27;;;;;;;2.53;2.33;;;4.30;1.00;;;;;;5078624;28;20452;-71
2023/11/22 15:15:53;;;;;;;3.70;2.57;;;4.30;1.00;;;;;;5071584;28;20443;-71
2023/11/22 15:18:19;;;;;;;2.90;2.50;;;;;;;;;;5082199;28;20438;-71
2023/11/22 15:20:45;;;;;;;3.20;2.30;;;4.10;1.00;;;;;;5070714;28;20469;-72
2023/11/22 15:23:11;;;;;;;3.70;2.40;;;;;;;;;;5081726;28;20442;-71
2023/11/22 15:25:38;;;;;;;6.13;2.40;;;;;;;;;;5074256;28;20163;-71
2023/11/22 15:28:15;;;;;;;8.03;2.40;;;;;;;;;;5074142;28;20429;-71
2023/11/22 15:30:40;;;;;;;17.80;4.50;;;3.70;1.00;;;;;;5069880;28;21112;-71